createdAt,value
2022-09-28T00:02:48.607Z,17.03
2022-09-28T00:06:49.137Z,17.00
2022-09-28T00:10:56.830Z,16.77
2022-09-28T00:14:56.362Z,16.99
2022-09-28T00:18:58.102Z,16.94
2022-09-28T00:22:57.766Z,16.99
2022-09-28T00:27:01.011Z,16.88
2022-09-28T00:31:01.015Z,16.97
2022-09-28T00:35:02.686Z,16.98
2022-09-28T00:39:06.437Z,16.89
2022-09-28T00:43:20.347Z,16.88
2022-09-28T00:47:28.973Z,16.88
2022-09-28T00:51:33.017Z,16.91
2022-09-28T00:55:40.286Z,16.95
2022-09-28T00:59:39.979Z,16.93
2022-09-28T01:03:44.850Z,17.13
2022-09-28T01:07:48.314Z,17.33
2022-09-28T01:11:48.549Z,17.64
2022-09-28T01:15:59.094Z,17.83
2022-09-28T01:20:17.854Z,17.76
2022-09-28T01:24:37.769Z,17.56
2022-09-28T01:28:40.062Z,17.49
2022-09-28T01:32:49.782Z,17.86
2022-09-28T01:36:52.417Z,17.85
2022-09-28T01:40:54.159Z,17.85
2022-09-28T01:45:03.411Z,17.75
2022-09-28T01:49:08.524Z,17.76
2022-09-28T01:53:14.894Z,17.43
2022-09-28T01:57:22.057Z,17.67
2022-09-28T02:01:29.907Z,17.49
2022-09-28T02:05:34.081Z,17.53
2022-09-28T02:09:39.317Z,17.64
2022-09-28T02:13:43.349Z,17.76
2022-09-28T02:17:46.442Z,17.74
2022-09-28T02:21:55.854Z,17.23
2022-09-28T02:26:02.946Z,17.08
2022-09-28T02:30:03.199Z,17.01
2022-09-28T02:34:04.968Z,16.90
2022-09-28T02:38:04.453Z,16.75
2022-09-28T02:42:13.815Z,16.86
2022-09-28T02:46:21.846Z,16.75
2022-09-28T02:50:37.067Z,16.75
2022-09-28T02:54:56.664Z,16.61
2022-09-28T02:59:05.292Z,16.73
2022-09-28T03:03:13.964Z,16.77
2022-09-28T03:07:24.839Z,16.84
2022-09-28T03:11:27.498Z,16.89
2022-09-28T03:15:29.109Z,16.80
2022-09-28T03:19:32.324Z,16.66
2022-09-28T03:23:33.745Z,16.11
2022-09-28T03:27:33.460Z,16.10
2022-09-28T03:31:32.582Z,15.93
2022-09-28T03:35:32.608Z,15.82
2022-09-28T03:39:33.851Z,15.65
2022-09-28T03:43:33.763Z,15.73
2022-09-28T03:47:33.850Z,15.78
2022-09-28T03:51:34.012Z,15.44
2022-09-28T03:55:35.127Z,15.78
2022-09-28T03:59:37.075Z,16.05
2022-09-28T04:03:36.923Z,16.44
2022-09-28T04:07:37.068Z,16.77
2022-09-28T04:12:02.400Z,16.90
2022-09-28T04:16:00.701Z,16.80
2022-09-28T04:20:02.621Z,16.87
2022-09-28T04:24:03.706Z,16.95
2022-09-28T04:28:21.965Z,16.90
2022-09-28T04:32:22.263Z,16.95
2022-09-28T04:36:24.756Z,17.02
2022-09-28T04:40:24.041Z,16.93
2022-09-28T04:44:26.631Z,16.85
2022-09-28T04:48:30.594Z,17.01
2022-09-28T04:52:30.635Z,17.28
2022-09-28T04:56:29.597Z,17.56
2022-09-28T05:00:35.796Z,17.57
2022-09-28T05:04:35.708Z,17.55
2022-09-28T05:08:36.587Z,17.57
2022-09-28T05:12:35.659Z,17.54
2022-09-28T05:16:37.553Z,17.75
2022-09-28T05:20:43.175Z,17.69
2022-09-28T05:24:46.095Z,17.90
2022-09-28T05:28:47.798Z,17.96
2022-09-28T05:32:51.302Z,17.85
2022-09-28T05:36:50.990Z,18.00
2022-09-28T05:40:50.694Z,18.03
2022-09-28T05:44:50.507Z,18.21
2022-09-28T05:48:52.099Z,18.25
2022-09-28T05:53:00.343Z,18.22
2022-09-28T05:56:59.959Z,18.21
2022-09-28T06:01:00.159Z,18.26
2022-09-28T06:05:01.871Z,18.62
2022-09-28T06:09:02.304Z,19.08
2022-09-28T06:13:03.496Z,19.40
2022-09-28T06:17:02.634Z,20.03
2022-09-28T06:21:05.571Z,20.54
2022-09-28T06:25:06.395Z,20.71
2022-09-28T06:29:05.676Z,20.87
2022-09-28T06:33:05.787Z,21.44
2022-09-28T06:37:07.082Z,21.39
2022-09-28T06:41:07.088Z,21.40
2022-09-28T06:45:06.853Z,21.04
2022-09-28T06:49:08.885Z,21.24
2022-09-28T06:53:17.770Z,20.93
2022-09-28T06:57:17.883Z,20.97
2022-09-28T07:01:17.208Z,20.96
2022-09-28T07:05:18.825Z,21.11
2022-09-28T07:09:32.410Z,21.56
2022-09-28T07:13:49.936Z,21.71
2022-09-28T07:18:00.019Z,22.08
2022-09-28T07:22:05.147Z,22.59
2022-09-28T07:26:09.394Z,22.66
2022-09-28T07:30:17.762Z,22.86
2022-09-28T07:34:18.115Z,22.74
2022-09-28T07:38:19.770Z,22.98
2022-09-28T07:42:21.532Z,22.93
2022-09-28T07:46:21.860Z,23.31
2022-09-28T07:50:23.118Z,22.87
2022-09-28T07:54:22.644Z,22.59
2022-09-28T07:58:24.970Z,22.92
2022-09-28T08:02:25.553Z,23.03
2022-09-28T08:06:25.859Z,22.94
2022-09-28T08:10:25.074Z,23.05
2022-09-28T08:14:29.310Z,22.77
2022-09-28T08:18:30.547Z,22.95
2022-09-28T08:22:31.902Z,23.19
2022-09-28T08:26:31.825Z,23.48
2022-09-28T08:30:33.831Z,23.56
2022-09-28T08:34:34.193Z,23.65
2022-09-28T08:38:34.986Z,23.79
2022-09-28T08:42:41.897Z,23.57
2022-09-28T08:46:47.439Z,23.64
2022-09-28T08:50:53.364Z,23.57
2022-09-28T08:55:00.539Z,23.34
2022-09-28T08:59:05.270Z,23.61
2022-09-28T09:03:13.883Z,23.70
2022-09-28T09:07:31.680Z,24.35
2022-09-28T09:11:56.610Z,24.56
2022-09-28T09:16:02.984Z,24.55
2022-09-28T09:20:19.771Z,25.06
2022-09-28T09:24:27.702Z,25.01
2022-09-28T09:29:00.667Z,25.18
2022-09-28T09:33:23.912Z,25.04
2022-09-28T09:37:54.145Z,25.11
2022-09-28T09:42:13.159Z,24.93
2022-09-28T09:46:36.088Z,25.27
2022-09-28T09:50:41.182Z,25.07
2022-09-28T09:54:48.780Z,25.03
2022-09-28T09:58:52.787Z,25.28
2022-09-28T10:02:53.866Z,25.35
2022-09-28T10:07:00.810Z,25.63
2022-09-28T10:11:10.305Z,25.67
2022-09-28T10:15:11.256Z,26.17
2022-09-28T10:19:14.666Z,26.20
2022-09-28T10:23:25.132Z,26.01
2022-09-28T10:27:29.715Z,25.97
2022-09-28T10:31:39.752Z,26.08
2022-09-28T10:35:44.285Z,25.91
2022-09-28T10:39:49.352Z,26.44
2022-09-28T10:44:05.808Z,26.26
2022-09-28T10:48:18.446Z,26.28
2022-09-28T10:52:39.991Z,25.97
2022-09-28T10:56:42.242Z,26.55
2022-09-28T11:00:45.298Z,26.78
2022-09-28T11:04:52.084Z,26.71
2022-09-28T11:08:52.440Z,26.27
2022-09-28T11:12:53.697Z,26.61
2022-09-28T11:17:17.430Z,26.88
2022-09-28T11:21:18.993Z,26.27
2022-09-28T11:25:24.159Z,26.69
2022-09-28T11:29:27.548Z,26.96
2022-09-28T11:33:34.245Z,26.89
2022-09-28T11:38:03.429Z,26.58
2022-09-28T11:42:19.419Z,26.44
2022-09-28T11:46:33.337Z,27.03
2022-09-28T11:50:46.856Z,27.07
2022-09-28T11:54:52.686Z,27.13
2022-09-28T11:58:57.700Z,27.29
2022-09-28T12:03:03.389Z,27.77
2022-09-28T12:07:10.811Z,27.77
2022-09-28T12:11:16.280Z,27.76
2022-09-28T12:15:23.911Z,27.44
2022-09-28T12:19:31.555Z,27.62
2022-09-28T12:23:36.869Z,27.57
2022-09-28T12:27:42.051Z,27.82
2022-09-28T12:31:52.455Z,28.13
2022-09-28T12:36:12.030Z,28.15
2022-09-28T12:40:24.177Z,28.25
2022-09-28T12:44:59.743Z,28.16
2022-09-28T12:50:20.167Z,27.99
2022-09-28T12:54:03.662Z,28.29
2022-09-28T12:58:19.558Z,28.09
2022-09-28T13:02:39.740Z,28.08
2022-09-28T13:06:54.013Z,27.99
2022-09-28T13:11:07.978Z,27.89
2022-09-28T13:15:46.014Z,28.11
2022-09-28T13:19:53.200Z,28.31
2022-09-28T13:24:08.757Z,28.37
2022-09-28T13:28:17.710Z,28.09
2022-09-28T13:32:20.472Z,28.25
2022-09-28T13:36:47.262Z,28.34
2022-09-28T13:41:20.408Z,28.04
2022-09-28T13:45:35.451Z,28.16
2022-09-28T13:49:50.308Z,28.13
2022-09-28T13:54:13.853Z,28.48
2022-09-28T13:58:25.093Z,28.36
2022-09-28T14:02:34.572Z,28.32
2022-09-28T14:06:37.707Z,28.14
2022-09-28T14:10:51.784Z,28.03
2022-09-28T14:14:53.232Z,27.89
2022-09-28T14:18:57.049Z,27.92
2022-09-28T14:23:36.249Z,27.66
2022-09-28T14:28:02.227Z,27.62
2022-09-28T14:32:07.490Z,27.81
2022-09-28T14:36:10.399Z,27.87
2022-09-28T14:40:39.128Z,27.83
2022-09-28T14:45:12.315Z,27.69
2022-09-28T14:50:01.773Z,27.64
2022-09-28T14:54:05.874Z,27.68
2022-09-28T14:58:18.821Z,27.38
2022-09-28T15:02:33.284Z,27.65
2022-09-28T15:06:46.898Z,27.71
2022-09-28T15:10:51.011Z,27.29
2022-09-28T15:14:55.730Z,27.42
2022-09-28T15:19:21.090Z,27.35
2022-09-28T15:23:29.444Z,27.71
2022-09-28T15:27:37.062Z,27.62
2022-09-28T15:31:39.404Z,27.53
2022-09-28T15:35:40.365Z,27.81
2022-09-28T15:39:40.280Z,27.69
2022-09-28T15:43:41.212Z,27.57
2022-09-28T15:47:44.918Z,27.49
2022-09-28T15:51:51.939Z,27.39
2022-09-28T15:55:52.404Z,27.03
2022-09-28T15:59:56.582Z,26.52
2022-09-28T16:03:59.106Z,26.51
2022-09-28T16:07:59.009Z,26.37
2022-09-28T16:11:58.999Z,26.47
2022-09-28T16:16:00.453Z,26.29
2022-09-28T16:20:09.609Z,26.00
2022-09-28T16:24:19.958Z,25.60
2022-09-28T16:28:33.668Z,25.24
2022-09-28T16:32:41.723Z,25.28
2022-09-28T16:36:47.546Z,25.08
2022-09-28T16:40:54.603Z,24.81
2022-09-28T16:44:58.144Z,24.52
2022-09-28T16:49:02.229Z,24.09
2022-09-28T16:57:49.966Z,24.09
2022-09-28T17:02:00.680Z,23.88
2022-09-28T17:06:00.550Z,23.78
2022-09-28T17:10:02.522Z,23.80
2022-09-28T17:14:02.918Z,23.57
2022-09-28T17:18:02.390Z,23.66
2022-09-28T17:22:03.079Z,23.74
2022-09-28T17:26:08.390Z,23.78
2022-09-28T17:30:09.232Z,23.45
2022-09-28T17:34:09.856Z,23.21
2022-09-28T17:38:11.544Z,23.23
2022-09-28T17:42:13.792Z,23.32
2022-09-28T17:46:27.383Z,23.37
2022-09-28T17:50:29.919Z,23.46
2022-09-28T17:54:30.387Z,22.84
2022-09-28T17:58:34.452Z,22.60
2022-09-28T18:02:45.271Z,22.17
2022-09-28T18:06:45.889Z,22.74
2022-09-28T18:10:51.166Z,22.70
2022-09-28T18:14:52.857Z,22.38
2022-09-28T18:18:52.735Z,22.76
2022-09-28T18:23:00.325Z,22.42
2022-09-28T18:27:00.364Z,22.74
2022-09-28T18:31:12.858Z,22.36
2022-09-28T18:35:12.907Z,22.51
2022-09-28T18:39:13.065Z,22.33
2022-09-28T18:43:14.845Z,22.35
2022-09-28T18:47:17.274Z,22.64
2022-09-28T18:51:17.480Z,22.83
2022-09-28T18:55:17.482Z,22.81
2022-09-28T18:59:20.328Z,22.83
2022-09-28T19:03:24.812Z,22.74
2022-09-28T19:07:24.169Z,22.62
2022-09-28T19:11:24.562Z,22.15
2022-09-28T19:15:25.348Z,22.20
2022-09-28T19:19:28.868Z,22.38
2022-09-28T19:23:28.664Z,22.40
2022-09-28T19:27:28.464Z,22.17
2022-09-28T19:31:31.058Z,21.91
2022-09-28T19:35:33.035Z,21.27
2022-09-28T19:39:33.051Z,21.07
2022-09-28T19:43:34.602Z,20.96
2022-09-28T19:47:36.166Z,21.05
2022-09-28T19:51:43.857Z,20.79
2022-09-28T19:56:05.072Z,21.01
2022-09-28T20:00:06.010Z,21.09
2022-09-28T20:04:05.850Z,21.25
2022-09-28T20:08:07.845Z,21.35
2022-09-28T20:12:07.866Z,21.23
2022-09-28T20:16:08.881Z,21.78
2022-09-28T20:20:11.171Z,22.16
2022-09-28T20:24:16.226Z,22.44
2022-09-28T20:28:16.192Z,22.46
2022-09-28T20:32:17.623Z,22.70
2022-09-28T20:36:18.964Z,23.27
2022-09-28T20:40:21.123Z,23.81
2022-09-28T20:44:21.080Z,23.88
2022-09-28T20:48:24.343Z,23.78
2022-09-28T20:52:24.537Z,22.85
2022-09-28T20:56:27.974Z,22.17
2022-09-28T21:00:27.971Z,21.91
2022-09-28T21:04:27.870Z,21.79
2022-09-28T21:08:27.797Z,21.72
2022-09-28T21:12:30.186Z,21.70
2022-09-28T21:16:31.519Z,21.81
2022-09-28T21:20:31.376Z,21.55
2022-09-28T21:24:32.423Z,21.85
2022-09-28T21:28:34.605Z,21.62
2022-09-28T21:32:35.260Z,21.48
2022-09-28T21:36:35.037Z,21.10
2022-09-28T21:40:34.809Z,20.81
2022-09-28T21:44:36.680Z,20.65
2022-09-28T21:48:36.467Z,20.61
2022-09-28T21:52:39.282Z,20.49
2022-09-28T21:56:38.918Z,20.53
2022-09-28T22:00:40.990Z,20.81
2022-09-28T22:04:40.756Z,20.96
2022-09-28T22:08:41.344Z,21.55
2022-09-28T22:12:41.311Z,21.61
2022-09-28T22:16:42.790Z,21.96
2022-09-28T22:20:42.956Z,22.13
2022-09-28T22:24:42.865Z,22.01
2022-09-28T22:28:47.716Z,22.17
2022-09-28T22:32:50.042Z,22.19
2022-09-28T22:36:49.353Z,22.60
2022-09-28T22:40:49.991Z,22.52
2022-09-28T22:44:49.332Z,22.29
2022-09-28T22:48:52.687Z,22.18
2022-09-28T22:52:52.929Z,22.18
2022-09-28T22:56:52.868Z,21.86
2022-09-28T23:00:53.104Z,21.88
2022-09-28T23:04:55.081Z,21.27
2022-09-28T23:08:55.308Z,20.76
2022-09-28T23:12:55.376Z,20.68
2022-09-28T23:16:55.102Z,20.53
2022-09-28T23:21:01.287Z,20.03
2022-09-28T23:25:01.096Z,20.17
2022-09-28T23:29:01.626Z,20.06
2022-09-28T23:33:00.821Z,19.84
2022-09-28T23:37:02.704Z,19.70
2022-09-28T23:41:02.511Z,19.74
2022-09-28T23:45:02.428Z,19.34
2022-09-28T23:49:03.384Z,19.59
2022-09-28T23:53:07.192Z,19.67
2022-09-28T23:57:07.140Z,19.79
